Time;durP1;ratioP1;P1;durP2;ratioP2;P2;SDS_P1;SDS_P2;PMS_P1;PMS_P2;Temp;Humidity;BMP_temperature;BMP_pressure;BME280_temperature;BME280_humidity;BME280_pressure;Samples;Min_cycle;Max_cycle;Signal;HPM_P1;HPM_P2
2023/04/08 00:01:51;;;;;;;25.92;14.85;;;;;;;;;;5055446;28;20025;-61
2023/04/08 00:04:17;;;;;;;28.90;17.88;;;;;;;;;;5058481;28;20047;-62
2023/04/08 00:06:43;;;;;;;36.05;20.60;;;;;;;;;;5067244;28;20689;-62
2023/04/08 00:09:08;;;;;;;35.33;19.70;;;;;;;;;;5057046;28;20029;-61
2023/04/08 00:11:33;;;;;;;32.88;19.08;;;;;;;;;;5060234;28;21980;-61
2023/04/08 00:13:59;;;;;;;30.88;17.83;;;;;;;;;;5065691;28;20039;-61
2023/04/08 00:16:25;;;;;;;29.70;17.13;;;;;;;;;;5066745;28;20051;-61
2023/04/08 00:18:50;;;;;;;28.20;16.48;;;;;;;;;;5065896;28;20033;-60
2023/04/08 00:21:19;;;;;;;26.65;16.20;;;;;;;;;;5065296;28;20037;-60
2023/04/08 00:23:44;;;;;;;26.83;16.17;;;;;;;;;;5068258;28;20032;-61
2023/04/08 00:26:10;;;;;;;25.48;16.02;;;;;;;;;;5054450;28;20036;-61
2023/04/08 00:28:36;;;;;;;24.00;15.68;;;;;;;;;;5060949;28;20468;-60
2023/04/08 00:31:01;;;;;;;26.40;15.75;;;;;;;;;;5051514;28;20093;-60
2023/04/08 00:33:26;;;;;;;24.90;15.27;;;;;;;;;;5052552;28;20082;-61
2023/04/08 00:35:52;;;;;;;23.83;14.98;;;;;;;;;;5055055;28;20045;-61
2023/04/08 00:38:17;;;;;;;24.00;15.40;;;;;;;;;;5052868;28;20025;-60
2023/04/08 00:40:43;;;;;;;25.25;15.77;;;;;;;;;;5054164;28;20040;-61
2023/04/08 00:43:08;;;;;;;23.63;15.73;;;;;;;;;;5056587;28;20059;-61
2023/04/08 00:45:34;;;;;;;24.90;15.27;;;;;;;;;;5066956;28;20059;-60
2023/04/08 00:48:01;;;;;;;24.30;15.30;;;;;;;;;;5064404;28;20024;-61
2023/04/08 00:50:27;;;;;;;22.98;14.70;;;;;;;;;;5056062;28;20040;-61
2023/04/08 00:52:52;;;;;;;22.17;14.02;;;;;;;;;;5057138;28;20033;-61
2023/04/08 00:55:17;;;;;;;23.70;14.75;;;;;;;;;;5060211;28;20387;-61
2023/04/08 00:57:43;;;;;;;22.15;14.50;;;;;;;;;;5057162;28;20525;-61
2023/04/08 01:00:09;;;;;;;22.25;14.05;;;;;;;;;;5056808;28;20036;-61
2023/04/08 01:03:19;;;;;;;25.50;14.98;;;;;;;;;;5068603;28;20032;-61
2023/04/08 01:06:03;;;;;;;23.30;14.63;;;;;;;;;;5056781;28;20028;-62
2023/04/08 01:08:30;;;;;;;25.00;15.88;;;;;;;;;;5066197;28;20067;-60
2023/04/08 01:11:00;;;;;;;27.27;15.63;;;;;;;;;;5046897;28;20039;-60
2023/04/08 01:13:30;;;;;;;24.33;15.65;;;;;;;;;;5060199;28;20065;-62
2023/04/08 01:15:56;;;;;;;25.42;14.73;;;;;;;;;;5060549;28;20028;-61
2023/04/08 01:18:21;;;;;;;24.73;15.25;;;;;;;;;;5056526;28;20433;-60
2023/04/08 01:20:49;;;;;;;23.35;14.82;;;;;;;;;;5058481;28;20689;-61
2023/04/08 01:23:23;;;;;;;26.17;16.10;;;;;;;;;;5062061;28;20470;-61
2023/04/08 01:25:53;;;;;;;25.40;15.00;;;;;;;;;;5070392;28;20066;-61
2023/04/08 01:28:19;;;;;;;24.85;15.40;;;;;;;;;;5074233;28;20029;-62
2023/04/08 01:30:46;;;;;;;23.52;15.05;;;;;;;;;;5071175;28;20028;-61
2023/04/08 01:33:15;;;;;;;22.00;14.30;;;;;;;;;;5066364;28;20466;-62
2023/04/08 01:35:41;;;;;;;20.48;13.27;;;;;;;;;;5053037;28;20136;-61
2023/04/08 01:38:09;;;;;;;21.63;13.57;;;;;;;;;;5065826;28;20123;-61
2023/04/08 01:40:37;;;;;;;20.85;13.60;;;;;;;;;;5077095;28;20036;-61
2023/04/08 01:43:06;;;;;;;22.75;13.50;;;;;;;;;;5073105;28;20444;-61
2023/04/08 01:45:32;;;;;;;21.52;12.82;;;;;;;;;;5071284;28;20072;-61
2023/04/08 01:47:59;;;;;;;24.63;13.95;;;;;;;;;;5061897;28;20055;-61
2023/04/08 01:50:26;;;;;;;22.38;13.35;;;;;;;;;;5057938;28;20058;-61
2023/04/08 01:52:52;;;;;;;22.70;13.88;;;;;;;;;;5054838;28;20044;-61
2023/04/08 01:55:19;;;;;;;21.58;12.75;;;;;;;;;;5068848;28;20035;-61
2023/04/08 01:57:50;;;;;;;23.52;13.63;;;;;;;;;;5067777;28;20028;-61
2023/04/08 02:00:19;;;;;;;23.33;13.50;;;;;;;;;;5054954;28;20032;-62
2023/04/08 02:02:46;;;;;;;23.05;13.57;;;;;;;;;;5068179;28;20037;-63
2023/04/08 02:05:13;;;;;;;23.42;13.57;;;;;;;;;;5060892;28;20036;-63
2023/04/08 02:07:38;;;;;;;24.98;13.70;;;;;;;;;;5083484;28;20036;-60
2023/04/08 02:10:04;;;;;;;24.88;14.50;;;;;;;;;;5076263;28;20020;-60
2023/04/08 02:12:30;;;;;;;22.42;14.30;;;;;;;;;;5074287;28;20458;-60
2023/04/08 02:14:56;;;;;;;25.73;14.45;;;;;;;;;;5069272;28;20041;-60
2023/04/08 02:18:07;;;;;;;22.17;13.50;;;;;;;;;;5055310;28;20426;-60
2023/04/08 02:20:46;;;;;;;23.70;13.70;;;;;;;;;;5061998;28;20072;-63
2023/04/08 02:23:18;;;;;;;19.80;12.60;;;;;;;;;;5064903;28;20276;-62
2023/04/08 02:25:45;;;;;;;25.60;13.43;;;;;;;;;;5069808;28;20104;-62
2023/04/08 02:28:12;;;;;;;20.83;13.77;;;;;;;;;;5057040;28;20112;-60
2023/04/08 02:30:41;;;;;;;20.08;13.25;;;;;;;;;;5057729;28;20111;-62
2023/04/08 02:33:07;;;;;;;19.40;12.70;;;;;;;;;;5053483;28;20116;-62
2023/04/08 02:35:35;;;;;;;20.75;13.30;;;;;;;;;;5051576;28;20127;-60
2023/04/08 02:38:00;;;;;;;20.25;13.35;;;;;;;;;;5054021;28;20040;-61
2023/04/08 02:40:28;;;;;;;21.38;12.98;;;;;;;;;;5064099;28;20072;-62
2023/04/08 02:42:54;;;;;;;21.73;12.77;;;;;;;;;;5068075;28;20024;-62
2023/04/08 02:45:20;;;;;;;19.38;12.63;;;;;;;;;;5065601;28;20051;-61
2023/04/08 02:47:46;;;;;;;21.17;12.80;;;;;;;;;;5061671;28;20024;-61
2023/04/08 02:50:11;;;;;;;21.27;13.02;;;;;;;;;;5054924;28;20402;-61
2023/04/08 02:52:37;;;;;;;20.25;13.10;;;;;;;;;;5051770;28;20037;-60
2023/04/08 02:55:05;;;;;;;20.02;12.57;;;;;;;;;;5052063;28;20052;-62
2023/04/08 02:57:31;;;;;;;24.55;13.65;;;;;;;;;;5053624;28;21712;-61
2023/04/08 02:59:56;;;;;;;24.38;14.10;;;;;;;;;;5050207;28;20497;-61
2023/04/08 03:02:21;;;;;;;19.88;12.85;;;;;;;;;;5067517;28;20470;-61
2023/04/08 03:04:47;;;;;;;24.80;14.35;;;;;;;;;;5064520;28;20117;-61
2023/04/08 03:07:12;;;;;;;19.27;12.75;;;;;;;;;;5063917;28;20028;-61
2023/04/08 03:09:37;;;;;;;20.63;12.75;;;;;;;;;;5050440;28;20394;-61
2023/04/08 03:12:03;;;;;;;20.70;13.38;;;;;;;;;;5051104;28;20029;-61
2023/04/08 03:14:28;;;;;;;19.60;13.05;;;;;;;;;;5053663;28;20463;-62
2023/04/08 03:16:54;;;;;;;19.58;12.02;;;;;;;;;;5066621;28;20032;-61
2023/04/08 03:19:19;;;;;;;18.10;12.15;;;;;;;;;;5064913;28;20031;-62
2023/04/08 03:21:45;;;;;;;17.90;11.73;;;;;;;;;;5062218;28;20485;-62
2023/04/08 03:24:10;;;;;;;22.90;13.68;;;;;;;;;;5054944;28;20087;-60
2023/04/08 03:26:35;;;;;;;22.98;13.85;;;;;;;;;;5057045;28;20134;-63
2023/04/08 03:29:01;;;;;;;23.00;13.40;;;;;;;;;;5055029;28;20202;-61
2023/04/08 03:31:26;;;;;;;22.25;14.18;;;;;;;;;;5055922;28;20041;-62
2023/04/08 03:33:51;;;;;;;22.85;13.07;;;;;;;;;;5057273;28;20400;-62
2023/04/08 03:36:17;;;;;;;20.30;12.60;;;;;;;;;;5060471;28;20045;-62
2023/04/08 03:38:43;;;;;;;23.58;13.90;;;;;;;;;;5056718;28;20064;-62
2023/04/08 03:41:09;;;;;;;23.98;13.82;;;;;;;;;;5055248;28;20041;-62
2023/04/08 03:43:35;;;;;;;21.58;13.13;;;;;;;;;;5052642;28;20025;-61
2023/04/08 03:46:00;;;;;;;20.75;12.35;;;;;;;;;;5051411;28;21901;-61
2023/04/08 03:48:25;;;;;;;21.25;12.82;;;;;;;;;;5056957;28;20082;-62
2023/04/08 03:50:51;;;;;;;20.70;12.82;;;;;;;;;;5050024;28;20056;-62
2023/04/08 03:53:16;;;;;;;19.90;12.77;;;;;;;;;;5066111;28;20037;-61
2023/04/08 03:55:41;;;;;;;20.00;12.18;;;;;;;;;;5068510;28;20048;-62
2023/04/08 03:58:07;;;;;;;20.05;12.45;;;;;;;;;;5051054;28;20025;-61
2023/04/08 04:00:32;;;;;;;21.45;13.45;;;;;;;;;;5056689;28;20532;-61
2023/04/08 04:02:58;;;;;;;22.48;13.98;;;;;;;;;;5050369;28;20051;-61
2023/04/08 04:05:23;;;;;;;23.67;13.90;;;;;;;;;;5064807;28;20500;-61
2023/04/08 04:07:48;;;;;;;21.52;12.95;;;;;;;;;;5053937;28;20025;-62
2023/04/08 04:10:14;;;;;;;26.38;14.25;;;;;;;;;;5063112;28;20033;-62
2023/04/08 04:12:39;;;;;;;25.40;14.02;;;;;;;;;;5059019;28;20382;-61
2023/04/08 04:15:05;;;;;;;56.35;16.27;;;;;;;;;;5064647;28;20060;-62
2023/04/08 04:17:31;;;;;;;59.13;16.95;;;;;;;;;;5067146;28;20028;-62
2023/04/08 04:19:56;;;;;;;23.10;13.77;;;;;;;;;;5053573;28;20067;-62
2023/04/08 04:22:23;;;;;;;22.17;13.80;;;;;;;;;;5075226;28;20090;-62
2023/04/08 04:24:48;;;;;;;22.10;13.35;;;;;;;;;;5055736;28;20127;-62
2023/04/08 04:27:16;;;;;;;22.38;13.18;;;;;;;;;;5065336;28;20382;-62
2023/04/08 04:29:42;;;;;;;20.38;13.10;;;;;;;;;;5056552;28;20120;-62
2023/04/08 04:32:07;;;;;;;21.02;13.00;;;;;;;;;;5068393;28;20112;-61
2023/04/08 04:34:33;;;;;;;21.92;13.55;;;;;;;;;;5059415;28;20053;-62
2023/04/08 04:36:58;;;;;;;21.33;13.10;;;;;;;;;;5052053;28;20100;-62
2023/04/08 04:39:24;;;;;;;21.27;13.45;;;;;;;;;;5061545;28;20033;-61
2023/04/08 04:41:49;;;;;;;23.98;13.82;;;;;;;;;;5068520;28;20089;-61
2023/04/08 04:44:15;;;;;;;22.95;13.45;;;;;;;;;;5082908;28;20035;-62
2023/04/08 04:46:40;;;;;;;22.35;13.57;;;;;;;;;;5083652;28;20113;-62
2023/04/08 04:49:06;;;;;;;22.35;13.90;;;;;;;;;;5074431;28;20470;-63
2023/04/08 04:51:34;;;;;;;23.10;13.75;;;;;;;;;;5074254;28;20455;-63
2023/04/08 04:54:00;;;;;;;22.60;13.82;;;;;;;;;;5072726;28;20500;-63
2023/04/08 04:56:25;;;;;;;24.40;14.32;;;;;;;;;;5073154;28;20036;-62
2023/04/08 04:58:51;;;;;;;23.05;14.15;;;;;;;;;;5070723;28;20035;-61
2023/04/08 05:01:16;;;;;;;23.02;13.98;;;;;;;;;;5072386;28;20044;-62
2023/04/08 05:03:42;;;;;;;22.17;14.10;;;;;;;;;;5060328;28;20108;-61
2023/04/08 05:06:07;;;;;;;24.40;15.13;;;;;;;;;;5053938;28;20036;-61
2023/04/08 05:08:33;;;;;;;21.85;14.20;;;;;;;;;;5055620;28;20105;-61
2023/04/08 05:11:00;;;;;;;22.08;14.23;;;;;;;;;;5073285;28;20082;-63
2023/04/08 05:13:27;;;;;;;23.10;14.50;;;;;;;;;;5074189;28;20025;-63
2023/04/08 05:15:52;;;;;;;23.58;15.77;;;;;;;;;;5072244;28;20115;-62
2023/04/08 05:18:18;;;;;;;24.27;15.13;;;;;;;;;;5073001;28;20103;-62
2023/04/08 05:20:44;;;;;;;25.92;15.52;;;;;;;;;;5073478;28;20086;-63
2023/04/08 05:23:09;;;;;;;24.63;15.30;;;;;;;;;;5073808;28;20082;-63
2023/04/08 05:25:35;;;;;;;25.20;15.20;;;;;;;;;;5073741;28;20197;-63
2023/04/08 05:28:00;;;;;;;26.83;16.33;;;;;;;;;;5073062;28;20036;-62
2023/04/08 05:30:25;;;;;;;23.55;14.70;;;;;;;;;;5073816;28;20090;-63
2023/04/08 05:32:51;;;;;;;24.98;15.55;;;;;;;;;;5072554;28;20034;-63
2023/04/08 05:35:16;;;;;;;24.20;15.52;;;;;;;;;;5073118;28;20414;-63
2023/04/08 05:37:42;;;;;;;24.60;15.35;;;;;;;;;;5073926;28;20024;-62
2023/04/08 05:40:08;;;;;;;24.77;15.75;;;;;;;;;;5072744;28;20028;-62
2023/04/08 05:42:33;;;;;;;24.33;15.35;;;;;;;;;;5073620;28;20033;-62
2023/04/08 05:44:58;;;;;;;24.50;16.25;;;;;;;;;;5072701;28;20043;-63
2023/04/08 05:47:24;;;;;;;27.25;16.38;;;;;;;;;;5073533;28;20024;-63
2023/04/08 05:49:49;;;;;;;24.75;15.63;;;;;;;;;;5072359;28;20083;-63
2023/04/08 05:52:15;;;;;;;27.17;15.80;;;;;;;;;;5074756;28;20070;-64
2023/04/08 05:54:44;;;;;;;26.08;16.38;;;;;;;;;;5073956;28;20107;-63
2023/04/08 05:57:10;;;;;;;33.15;18.75;;;;;;;;;;5072583;28;20028;-63
2023/04/08 05:59:35;;;;;;;31.95;19.38;;;;;;;;;;5073377;28;20386;-63
2023/04/08 06:02:01;;;;;;;36.55;20.20;;;;;;;;;;5072672;28;20082;-63
2023/04/08 06:04:26;;;;;;;33.33;19.85;;;;;;;;;;5073388;28;20047;-63
2023/04/08 06:06:51;;;;;;;40.47;20.40;;;;;;;;;;5070861;28;20078;-64
2023/04/08 06:09:17;;;;;;;40.45;21.25;;;;;;;;;;5073663;28;20126;-64
2023/04/08 06:11:42;;;;;;;37.10;19.67;;;;;;;;;;5073130;28;20454;-62
2023/04/08 06:14:08;;;;;;;34.47;19.65;;;;;;;;;;5066659;28;20038;-62
2023/04/08 06:16:33;;;;;;;36.55;19.15;;;;;;;;;;5072777;28;20535;-65
2023/04/08 06:18:58;;;;;;;33.58;19.33;;;;;;;;;;5072065;28;20025;-63
2023/04/08 06:21:24;;;;;;;32.55;19.95;;;;;;;;;;5071820;28;20033;-65
2023/04/08 06:23:49;;;;;;;31.13;17.88;;;;;;;;;;5071512;28;20085;-63
2023/04/08 06:26:15;;;;;;;29.88;18.15;;;;;;;;;;5081171;28;20118;-63
2023/04/08 06:28:40;;;;;;;30.05;17.45;;;;;;;;;;5093051;28;20032;-64
2023/04/08 06:31:06;;;;;;;30.70;17.30;;;;;;;;;;5074881;28;20043;-66
2023/04/08 06:33:31;;;;;;;28.17;16.35;;;;;;;;;;5072564;28;20035;-63
2023/04/08 06:36:06;;;;;;;29.48;17.13;;;;;;;;;;5071502;28;20231;-63
2023/04/08 06:38:32;;;;;;;29.10;17.25;;;;;;;;;;5071231;28;20025;-63
2023/04/08 06:41:05;;;;;;;28.52;17.08;;;;;;;;;;5070948;28;20031;-64
2023/04/08 06:43:31;;;;;;;29.75;16.35;;;;;;;;;;5083266;28;20057;-63
2023/04/08 06:45:56;;;;;;;32.08;17.55;;;;;;;;;;5091493;28;20468;-62
2023/04/08 06:48:28;;;;;;;29.02;16.20;;;;;;;;;;5075073;28;20032;-63
2023/04/08 06:50:57;;;;;;;28.40;16.15;;;;;;;;;;5071442;28;20032;-62
2023/04/08 06:53:23;;;;;;;24.65;15.55;;;;;;;;;;5072518;28;20501;-63
2023/04/08 06:55:49;;;;;;;27.05;16.17;;;;;;;;;;5071618;28;20478;-62
2023/04/08 06:58:14;;;;;;;26.00;15.00;;;;;;;;;;5065026;28;20024;-63
2023/04/08 07:00:41;;;;;;;23.30;15.20;;;;;;;;;;5072544;28;20355;-63
2023/04/08 07:03:06;;;;;;;24.80;15.50;;;;;;;;;;5069763;28;20485;-63
2023/04/08 07:05:35;;;;;;;25.33;15.45;;;;;;;;;;5071918;28;20082;-64
2023/04/08 07:08:01;;;;;;;24.83;15.35;;;;;;;;;;5067652;28;20116;-63
2023/04/08 07:10:26;;;;;;;24.75;15.40;;;;;;;;;;5051947;28;20115;-63
2023/04/08 07:12:52;;;;;;;26.10;15.73;;;;;;;;;;5051190;28;20029;-64
2023/04/08 07:15:18;;;;;;;25.73;15.93;;;;;;;;;;5053617;28;20506;-62
2023/04/08 07:17:43;;;;;;;22.95;15.02;;;;;;;;;;5064995;28;20063;-64
2023/04/08 07:20:09;;;;;;;26.98;15.32;;;;;;;;;;5071156;28;20592;-64
2023/04/08 07:22:35;;;;;;;23.10;15.05;;;;;;;;;;5071476;28;20029;-63
2023/04/08 07:25:00;;;;;;;22.63;14.90;;;;;;;;;;5071351;28;20462;-64
2023/04/08 07:27:25;;;;;;;22.33;14.30;;;;;;;;;;5071711;28;20527;-62
2023/04/08 07:29:53;;;;;;;22.15;14.00;;;;;;;;;;5070088;28;20029;-62
2023/04/08 07:32:18;;;;;;;23.83;14.80;;;;;;;;;;5071256;28;20108;-62
2023/04/08 07:34:43;;;;;;;25.85;15.05;;;;;;;;;;5079802;28;20142;-64
2023/04/08 07:37:09;;;;;;;22.23;13.80;;;;;;;;;;5070655;28;20028;-64
2023/04/08 07:39:35;;;;;;;22.83;13.75;;;;;;;;;;5071270;28;20036;-64
2023/04/08 07:42:00;;;;;;;19.77;13.30;;;;;;;;;;5071848;28;20042;-63
2023/04/08 07:44:25;;;;;;;20.15;12.45;;;;;;;;;;5075750;28;20024;-63
2023/04/08 07:46:51;;;;;;;18.77;12.05;;;;;;;;;;5075542;28;20459;-63
2023/04/08 07:49:16;;;;;;;19.80;12.07;;;;;;;;;;5074613;28;20056;-64
2023/04/08 07:51:42;;;;;;;16.75;11.30;;;;;;;;;;5087810;28;20035;-63
2023/04/08 07:54:09;;;;;;;17.85;12.18;;;;;;;;;;5095098;28;20035;-63
2023/04/08 07:56:34;;;;;;;20.73;12.40;;;;;;;;;;5090293;28;20020;-64
2023/04/08 07:59:00;;;;;;;17.48;12.55;;;;;;;;;;5073595;28;20385;-64
2023/04/08 08:01:28;;;;;;;18.40;11.65;;;;;;;;;;5071867;28;20052;-67
2023/04/08 08:03:54;;;;;;;15.82;10.45;;;;;;;;;;5071779;28;20074;-65
2023/04/08 08:06:20;;;;;;;15.27;11.13;;;;;;;;;;5074710;28;20029;-66
2023/04/08 08:08:46;;;;;;;15.45;11.02;;;;;;;;;;5074208;28;20029;-66
2023/04/08 08:11:11;;;;;;;16.45;11.65;;;;;;;;;;5074361;28;20029;-66
2023/04/08 08:13:37;;;;;;;17.42;11.82;;;;;;;;;;5075209;28;20036;-66
2023/04/08 08:16:02;;;;;;;18.45;10.85;;;;;;;;;;5074226;28;20041;-66
2023/04/08 08:18:28;;;;;;;17.33;11.27;;;;;;;;;;5074822;28;20025;-66
2023/04/08 08:20:53;;;;;;;15.30;10.60;;;;;;;;;;5074655;28;20115;-63
2023/04/08 08:23:19;;;;;;;15.70;10.80;;;;;;;;;;5071281;28;20478;-66
2023/04/08 08:25:44;;;;;;;15.10;10.50;;;;;;;;;;5073764;28;20139;-66
2023/04/08 08:28:09;;;;;;;14.45;9.45;;;;;;;;;;5064915;28;20462;-65
2023/04/08 08:30:35;;;;;;;12.63;9.95;;;;;;;;;;5060646;28;20024;-65
2023/04/08 08:33:00;;;;;;;12.85;9.27;;;;;;;;;;5061305;28;20056;-63
2023/04/08 08:35:26;;;;;;;13.52;9.35;;;;;;;;;;5081998;28;20131;-65
2023/04/08 08:37:51;;;;;;;14.38;9.07;;;;;;;;;;5074440;28;20028;-64
2023/04/08 08:40:17;;;;;;;16.15;9.35;;;;;;;;;;5071990;28;20040;-64
2023/04/08 08:42:50;;;;;;;13.85;9.18;;;;;;;;;;5073170;28;20093;-64
2023/04/08 08:45:18;;;;;;;14.63;9.27;;;;;;;;;;5073941;28;20024;-64
2023/04/08 08:47:44;;;;;;;11.88;9.15;;;;;;;;;;5071203;28;20025;-64
2023/04/08 08:50:09;;;;;;;14.00;9.32;;;;;;;;;;5072448;28;20460;-65
2023/04/08 08:52:35;;;;;;;15.63;9.68;;;;;;;;;;5072841;28;20079;-64
2023/04/08 08:55:01;;;;;;;14.18;9.95;;;;;;;;;;5070671;28;20067;-67
2023/04/08 08:57:26;;;;;;;14.82;10.23;;;;;;;;;;5072381;28;20363;-65
2023/04/08 08:59:52;;;;;;;13.48;9.70;;;;;;;;;;5074091;28;20024;-65
2023/04/08 09:02:29;;;;;;;13.98;9.05;;;;;;;;;;5073243;28;20872;-65
2023/04/08 09:05:02;;;;;;;15.27;10.15;;;;;;;;;;5074191;28;20048;-64
2023/04/08 09:07:34;;;;;;;15.63;9.63;;;;;;;;;;5069985;28;20074;-65
2023/04/08 09:10:00;;;;;;;15.85;9.35;;;;;;;;;;5073485;28;20495;-64
2023/04/08 09:12:27;;;;;;;15.27;9.82;;;;;;;;;;5073947;28;20035;-64
2023/04/08 09:15:08;;;;;;;15.73;9.95;;;;;;;;;;5074069;28;20063;-64
2023/04/08 09:17:34;;;;;;;;;;;;;;;;;;5074278;28;20051;-64
2023/04/08 09:20:10;;;;;;;14.32;9.02;;;;;;;;;;5069621;28;19912;-64
2023/04/08 09:23:01;;;;;;;13.55;9.20;;;;;;;;;;5074256;28;20104;-65
2023/04/08 09:25:29;;;;;;;13.60;8.80;;;;;;;;;;5073002;28;20039;-64
2023/04/08 09:27:55;;;;;;;13.63;9.15;;;;;;;;;;5073738;28;20117;-64
2023/04/08 09:30:22;;;;;;;12.77;8.85;;;;;;;;;;5072993;28;20119;-64
2023/04/08 09:32:50;;;;;;;11.70;8.80;;;;;;;;;;5073894;28;20033;-64
2023/04/08 09:35:16;;;;;;;12.30;8.68;;;;;;;;;;5072569;28;20040;-64
2023/04/08 09:37:42;;;;;;;13.52;8.93;;;;;;;;;;5073598;28;20087;-64
2023/04/08 09:40:08;;;;;;;13.68;9.50;;;;;;;;;;5071533;28;20041;-65
2023/04/08 09:42:38;;;;;;;13.07;9.40;;;;;;;;;;5072743;28;20029;-66
2023/04/08 09:45:06;;;;;;;13.05;9.38;;;;;;;;;;5073117;28;20074;-65
2023/04/08 09:47:37;;;;;;;14.05;9.30;;;;;;;;;;5073467;28;20037;-65
2023/04/08 09:50:05;;;;;;;;;;;;;;;;;;5073230;28;20111;-62
2023/04/08 09:52:43;;;;;;;12.65;8.82;;;;;;;;;;5073482;28;20381;-65
2023/04/08 09:55:16;;;;;;;13.45;8.20;;;;;;;;;;5072603;28;20024;-65
2023/04/08 09:58:07;;;;;;;12.60;8.68;;;;;;;;;;5071905;28;20051;-64
2023/04/08 10:00:48;;;;;;;13.40;9.02;;;;;;;;;;5073427;28;20024;-64
2023/04/08 10:03:34;;;;;;;10.85;8.15;;;;;;;;;;5072326;28;20041;-63
2023/04/08 10:06:02;;;;;;;10.95;7.65;;;;;;;;;;5071723;28;20032;-63
2023/04/08 10:08:27;;;;;;;11.38;7.68;;;;;;;;;;5069711;28;20105;-65
2023/04/08 10:10:55;;;;;;;10.68;7.78;;;;;;;;;;5073112;28;20484;-63
2023/04/08 10:13:21;;;;;;;11.25;8.13;;;;;;;;;;5072159;28;20036;-65
2023/04/08 10:15:47;;;;;;;11.45;8.15;;;;;;;;;;5072886;28;20032;-66
2023/04/08 10:18:17;;;;;;;10.85;7.70;;;;;;;;;;5071892;28;20029;-64
2023/04/08 10:20:43;;;;;;;9.98;7.65;;;;;;;;;;5071173;28;20424;-64
2023/04/08 10:23:13;;;;;;;10.00;7.03;;;;;;;;;;5071074;28;20091;-64
2023/04/08 10:25:47;;;;;;;10.77;7.50;;;;;;;;;;5069523;28;20474;-64
2023/04/08 10:28:18;;;;;;;10.52;7.60;;;;;;;;;;5067136;28;20322;-66
2023/04/08 10:30:44;;;;;;;;;;;;;;;;;;5065654;28;20037;-64
2023/04/08 10:33:28;;;;;;;12.48;7.72;;;;;;;;;;5066567;28;20796;-65
2023/04/08 10:35:54;;;;;;;10.02;7.40;;;;;;;;;;5061443;28;20052;-67
2023/04/08 10:38:20;;;;;;;10.93;7.55;;;;;;;;;;5075914;28;20042;-65
2023/04/08 10:40:47;;;;;;;9.90;7.10;;;;;;;;;;5069942;28;20042;-65
2023/04/08 10:43:13;;;;;;;10.93;7.05;;;;;;;;;;5069832;28;20391;-64
2023/04/08 10:45:40;;;;;;;9.95;7.10;;;;;;;;;;5070168;28;20166;-64
2023/04/08 10:48:23;;;;;;;9.45;6.80;;;;;;;;;;5071029;28;20028;-63
2023/04/08 10:50:53;;;;;;;10.40;6.90;;;;;;;;;;5059954;28;20111;-64
2023/04/08 10:53:39;;;;;;;9.98;6.90;;;;;;;;;;5070864;28;20037;-64
2023/04/08 10:56:13;;;;;;;9.40;6.53;;;;;;;;;;5069052;28;20090;-64
2023/04/08 10:58:49;;;;;;;8.82;6.95;;;;;;;;;;5071180;28;20024;-66
2023/04/08 11:01:14;;;;;;;11.63;6.53;;;;;;;;;;5070003;28;20036;-64
2023/04/08 11:03:41;;;;;;;7.97;6.40;;;;;;;;;;5072102;28;20021;-66
2023/04/08 11:06:07;;;;;;;8.95;6.35;;;;;;;;;;5070026;28;20115;-65
2023/04/08 11:08:33;;;;;;;11.30;6.65;;;;;;;;;;5066979;28;20117;-63
2023/04/08 11:11:04;;;;;;;8.80;6.65;;;;;;;;;;5071548;28;20032;-65
2023/04/08 11:13:30;;;;;;;9.23;6.80;;;;;;;;;;5069619;28;20032;-65
2023/04/08 11:15:58;;;;;;;9.02;6.57;;;;;;;;;;5071454;28;20036;-65
2023/04/08 11:18:24;;;;;;;8.60;6.65;;;;;;;;;;5069650;28;20165;-65
2023/04/08 11:20:51;;;;;;;10.32;7.00;;;;;;;;;;5070491;28;20458;-66
2023/04/08 11:23:17;;;;;;;9.27;7.07;;;;;;;;;;5069960;28;20135;-65
2023/04/08 11:25:44;;;;;;;9.82;7.18;;;;;;;;;;5071727;28;20506;-65
2023/04/08 11:28:11;;;;;;;10.73;6.95;;;;;;;;;;5067519;28;20104;-65
2023/04/08 11:30:39;;;;;;;8.88;7.00;;;;;;;;;;5071395;28;20036;-64
2023/04/08 11:33:05;;;;;;;8.77;6.93;;;;;;;;;;5067722;28;20028;-66
2023/04/08 11:35:30;;;;;;;9.40;7.30;;;;;;;;;;5059712;28;20071;-67
2023/04/08 11:37:57;;;;;;;10.40;7.70;;;;;;;;;;5055074;28;20041;-66
2023/04/08 11:40:23;;;;;;;8.77;7.00;;;;;;;;;;5060482;28;20033;-65
2023/04/08 11:42:50;;;;;;;10.55;7.97;;;;;;;;;;5062194;28;20107;-65
2023/04/08 11:45:18;;;;;;;10.60;7.38;;;;;;;;;;5065748;28;20075;-65
2023/04/08 11:47:44;;;;;;;10.13;7.88;;;;;;;;;;5074256;28;20028;-65
2023/04/08 11:50:10;;;;;;;9.32;7.32;;;;;;;;;;5073632;28;20528;-65
2023/04/08 11:52:52;;;;;;;9.95;7.28;;;;;;;;;;5071963;28;20035;-67
2023/04/08 11:55:29;;;;;;;9.95;7.82;;;;;;;;;;5067492;28;20037;-67
2023/04/08 11:57:56;;;;;;;8.88;7.18;;;;;;;;;;5068830;28;20063;-64
2023/04/08 12:00:22;;;;;;;14.15;7.90;;;;;;;;;;5062670;28;20061;-63
2023/04/08 12:02:48;;;;;;;9.75;7.72;;;;;;;;;;5051671;28;20037;-64
2023/04/08 12:05:14;;;;;;;10.18;7.93;;;;;;;;;;5064346;28;20086;-67
2023/04/08 12:07:41;;;;;;;10.52;8.25;;;;;;;;;;5061221;28;20052;-66
2023/04/08 12:10:07;;;;;;;9.85;8.25;;;;;;;;;;5049917;28;20065;-66
2023/04/08 12:12:32;;;;;;;11.32;8.68;;;;;;;;;;5063676;28;20035;-66
2023/04/08 12:14:58;;;;;;;10.90;8.27;;;;;;;;;;5065450;28;20048;-66
2023/04/08 12:17:33;;;;;;;10.93;8.52;;;;;;;;;;5062245;28;20374;-66
2023/04/08 12:19:58;;;;;;;11.45;8.75;;;;;;;;;;5053989;28;20119;-65
2023/04/08 12:22:24;;;;;;;11.48;9.07;;;;;;;;;;5054390;28;20125;-65
2023/04/08 12:24:49;;;;;;;11.73;8.40;;;;;;;;;;5056524;28;20104;-65
2023/04/08 12:27:15;;;;;;;11.15;8.00;;;;;;;;;;5054296;28;20029;-65
2023/04/08 12:29:40;;;;;;;11.30;8.30;;;;;;;;;;5067091;28;20082;-65
2023/04/08 12:32:06;;;;;;;11.30;8.45;;;;;;;;;;5065870;28;20075;-65
2023/04/08 12:34:31;;;;;;;12.70;8.85;;;;;;;;;;5064248;28;20045;-65
2023/04/08 12:36:57;;;;;;;10.68;8.30;;;;;;;;;;5058684;28;20119;-64
2023/04/08 12:39:23;;;;;;;10.93;8.98;;;;;;;;;;5069626;28;20032;-68
2023/04/08 12:41:48;;;;;;;11.48;9.13;;;;;;;;;;5072511;28;20028;-66
2023/04/08 12:44:13;;;;;;;11.48;9.07;;;;;;;;;;5072519;28;20060;-67
2023/04/08 12:46:39;;;;;;;12.65;9.45;;;;;;;;;;5074492;28;20025;-68
2023/04/08 12:49:04;;;;;;;11.48;9.02;;;;;;;;;;5074387;28;20103;-69
2023/04/08 12:51:31;;;;;;;11.20;9.10;;;;;;;;;;5073576;28;20039;-68
2023/04/08 12:53:56;;;;;;;10.98;9.15;;;;;;;;;;5073841;28;20024;-68
2023/04/08 12:56:21;;;;;;;12.25;8.93;;;;;;;;;;5072188;28;20032;-67
2023/04/08 12:58:47;;;;;;;12.13;9.65;;;;;;;;;;5058969;28;20028;-68
2023/04/08 13:01:12;;;;;;;12.73;8.50;;;;;;;;;;5071361;28;20037;-67
2023/04/08 13:03:38;;;;;;;12.55;9.45;;;;;;;;;;5058626;28;20033;-69
2023/04/08 13:06:04;;;;;;;12.10;9.38;;;;;;;;;;5059723;28;20051;-68
2023/04/08 13:08:29;;;;;;;12.30;9.40;;;;;;;;;;5072463;28;20619;-68
2023/04/08 13:10:54;;;;;;;11.60;9.10;;;;;;;;;;5067802;28;20112;-69
2023/04/08 13:13:20;;;;;;;12.40;9.02;;;;;;;;;;5053133;28;22198;-68
2023/04/08 13:15:46;;;;;;;12.25;9.13;;;;;;;;;;5068764;28;20025;-69
2023/04/08 13:18:11;;;;;;;11.85;9.68;;;;;;;;;;5071175;28;20111;-65
2023/04/08 13:20:37;;;;;;;12.93;9.80;;;;;;;;;;5059976;28;20056;-69
2023/04/08 13:23:02;;;;;;;11.85;9.48;;;;;;;;;;5068939;28;20130;-69
2023/04/08 13:25:28;;;;;;;11.85;9.70;;;;;;;;;;5071555;28;20505;-66
2023/04/08 13:27:53;;;;;;;13.55;10.18;;;;;;;;;;5053857;28;20040;-69
2023/04/08 13:30:18;;;;;;;13.60;9.45;;;;;;;;;;5052068;28;20125;-69
2023/04/08 13:32:44;;;;;;;13.75;10.15;;;;;;;;;;5057292;28;20040;-69
2023/04/08 13:35:09;;;;;;;12.88;9.60;;;;;;;;;;5061040;28;20045;-69
2023/04/08 13:37:35;;;;;;;12.65;9.38;;;;;;;;;;5065626;28;20108;-68
2023/04/08 13:40:00;;;;;;;12.05;9.57;;;;;;;;;;5072042;28;20043;-69
2023/04/08 13:42:25;;;;;;;13.15;9.82;;;;;;;;;;5060735;28;20028;-69
2023/04/08 13:44:51;;;;;;;13.52;9.88;;;;;;;;;;5066492;28;20024;-69
2023/04/08 13:47:16;;;;;;;14.10;10.15;;;;;;;;;;5072026;28;20024;-68
2023/04/08 13:49:42;;;;;;;12.77;9.40;;;;;;;;;;5071708;28;20094;-67
2023/04/08 13:52:07;;;;;;;12.32;9.57;;;;;;;;;;5054725;28;20043;-68
2023/04/08 13:54:33;;;;;;;12.13;8.88;;;;;;;;;;5054979;28;20165;-68
2023/04/08 13:56:58;;;;;;;12.82;8.95;;;;;;;;;;5057681;28;20032;-69
2023/04/08 13:59:23;;;;;;;12.48;8.93;;;;;;;;;;5070825;28;20471;-68
2023/04/08 14:01:53;;;;;;;12.85;9.25;;;;;;;;;;5065927;28;20021;-67
2023/04/08 14:04:22;;;;;;;12.43;8.75;;;;;;;;;;5052421;28;21446;-69
2023/04/08 14:06:49;;;;;;;11.45;9.20;;;;;;;;;;5053739;28;20100;-69
2023/04/08 14:09:24;;;;;;;13.02;8.95;;;;;;;;;;5057108;28;20036;-65
2023/04/08 14:11:50;;;;;;;13.02;8.27;;;;;;;;;;5069023;28;20035;-69
2023/04/08 14:14:15;;;;;;;12.70;9.00;;;;;;;;;;5067637;28;20032;-63
2023/04/08 14:16:41;;;;;;;12.50;8.85;;;;;;;;;;5066951;28;20451;-68
2023/04/08 14:19:07;;;;;;;11.30;8.23;;;;;;;;;;5059720;28;20386;-66
2023/04/08 14:21:32;;;;;;;11.90;8.93;;;;;;;;;;5051545;28;20044;-67
2023/04/08 14:23:58;;;;;;;12.48;8.93;;;;;;;;;;5066164;28;20085;-67